sensor_id;sensor_type;location;lat;lon;timestamp;pressure;altitude;pressure_sealevel;temperature;humidity
58385;BME280;44185;47.844;8.966;2023-04-27T00:00:31;96208.06;;;7.20;100.00
58385;BME280;44185;47.844;8.966;2023-04-27T00:02:56;96202.09;;;7.18;100.00
58385;BME280;44185;47.844;8.966;2023-04-27T00:05:23;96202.16;;;7.30;100.00
58385;BME280;44185;47.844;8.966;2023-04-27T00:07:49;96205.81;;;7.27;100.00
58385;BME280;44185;47.844;8.966;2023-04-27T00:10:14;96203.94;;;7.29;100.00
58385;BME280;44185;47.844;8.966;2023-04-27T00:12:40;96203.47;;;7.36;100.00
58385;BME280;44185;47.844;8.966;2023-04-27T00:15:06;96201.69;;;7.36;100.00
58385;BME280;44185;47.844;8.966;2023-04-27T00:17:32;96210.03;;;7.30;100.00
58385;BME280;44185;47.844;8.966;2023-04-27T00:19:57;96204.25;;;7.25;100.00
58385;BME280;44185;47.844;8.966;2023-04-27T00:22:24;96199.53;;;7.17;100.00
58385;BME280;44185;47.844;8.966;2023-04-27T00:24:49;96197.53;;;7.20;100.00
58385;BME280;44185;47.844;8.966;2023-04-27T00:27:15;96202.59;;;7.23;100.00
58385;BME280;44185;47.844;8.966;2023-04-27T00:29:40;96193.41;;;7.29;100.00
58385;BME280;44185;47.844;8.966;2023-04-27T00:32:06;96196.75;;;7.31;100.00
58385;BME280;44185;47.844;8.966;2023-04-27T00:34:32;96206.78;;;7.26;100.00
58385;BME280;44185;47.844;8.966;2023-04-27T00:36:57;96205.72;;;7.29;100.00
58385;BME280;44185;47.844;8.966;2023-04-27T00:39:24;96191.50;;;7.31;100.00
58385;BME280;44185;47.844;8.966;2023-04-27T00:41:49;96190.84;;;7.16;100.00
58385;BME280;44185;47.844;8.966;2023-04-27T00:44:21;96188.75;;;7.08;100.00
58385;BME280;44185;47.844;8.966;2023-04-27T00:46:47;96180.69;;;7.23;100.00
58385;BME280;44185;47.844;8.966;2023-04-27T00:49:12;96181.09;;;7.05;100.00
58385;BME280;44185;47.844;8.966;2023-04-27T00:51:38;96180.06;;;6.95;100.00
58385;BME280;44185;47.844;8.966;2023-04-27T00:54:03;96178.66;;;7.02;100.00
58385;BME280;44185;47.844;8.966;2023-04-27T00:56:30;96177.09;;;6.99;100.00
58385;BME280;44185;47.844;8.966;2023-04-27T00:58:56;96175.75;;;6.94;100.00
58385;BME280;44185;47.844;8.966;2023-04-27T01:01:21;96174.53;;;6.86;100.00
58385;BME280;44185;47.844;8.966;2023-04-27T01:03:47;96183.56;;;6.82;100.00
58385;BME280;44185;47.844;8.966;2023-04-27T01:06:13;96173.97;;;6.56;100.00
58385;BME280;44185;47.844;8.966;2023-04-27T01:08:38;96176.06;;;6.64;100.00
58385;BME280;44185;47.844;8.966;2023-04-27T01:11:04;96172.03;;;6.72;100.00
58385;BME280;44185;47.844;8.966;2023-04-27T01:13:31;96183.06;;;6.77;100.00
58385;BME280;44185;47.844;8.966;2023-04-27T01:15:56;96177.72;;;6.78;100.00
58385;BME280;44185;47.844;8.966;2023-04-27T01:18:22;96176.75;;;6.79;100.00
58385;BME280;44185;47.844;8.966;2023-04-27T01:20:47;96177.03;;;6.88;100.00
58385;BME280;44185;47.844;8.966;2023-04-27T01:23:14;96188.06;;;6.93;100.00
58385;BME280;44185;47.844;8.966;2023-04-27T01:25:39;96189.97;;;6.91;100.00
58385;BME280;44185;47.844;8.966;2023-04-27T01:28:05;96195.16;;;6.79;100.00
58385;BME280;44185;47.844;8.966;2023-04-27T01:30:30;96197.59;;;6.70;100.00
58385;BME280;44185;47.844;8.966;2023-04-27T01:32:56;96189.72;;;6.70;100.00
58385;BME280;44185;47.844;8.966;2023-04-27T01:35:21;96195.59;;;6.73;100.00
58385;BME280;44185;47.844;8.966;2023-04-27T01:37:47;96193.38;;;6.80;100.00
58385;BME280;44185;47.844;8.966;2023-04-27T01:40:14;96189.25;;;6.89;100.00
58385;BME280;44185;47.844;8.966;2023-04-27T01:42:39;96197.00;;;6.90;100.00
58385;BME280;44185;47.844;8.966;2023-04-27T01:45:06;96199.66;;;6.90;100.00
58385;BME280;44185;47.844;8.966;2023-04-27T01:47:32;96198.06;;;6.88;100.00
58385;BME280;44185;47.844;8.966;2023-04-27T01:49:57;96199.84;;;6.87;100.00
58385;BME280;44185;47.844;8.966;2023-04-27T01:52:23;96202.63;;;6.86;100.00
58385;BME280;44185;47.844;8.966;2023-04-27T01:54:48;96202.81;;;6.83;100.00
58385;BME280;44185;47.844;8.966;2023-04-27T01:57:15;96196.00;;;6.80;100.00
58385;BME280;44185;47.844;8.966;2023-04-27T01:59:40;96186.75;;;6.74;100.00
58385;BME280;44185;47.844;8.966;2023-04-27T02:02:06;96183.31;;;6.74;100.00
58385;BME280;44185;47.844;8.966;2023-04-27T02:04:32;96189.59;;;6.84;100.00
58385;BME280;44185;47.844;8.966;2023-04-27T02:06:57;96192.59;;;6.91;100.00
58385;BME280;44185;47.844;8.966;2023-04-27T02:09:23;96197.66;;;6.94;100.00
58385;BME280;44185;47.844;8.966;2023-04-27T02:11:48;96198.03;;;7.01;100.00
58385;BME280;44185;47.844;8.966;2023-04-27T02:14:15;96203.53;;;6.98;100.00
58385;BME280;44185;47.844;8.966;2023-04-27T02:16:40;96196.91;;;6.92;100.00
58385;BME280;44185;47.844;8.966;2023-04-27T02:19:06;96198.59;;;6.93;100.00
58385;BME280;44185;47.844;8.966;2023-04-27T02:21:31;96194.16;;;6.94;100.00
58385;BME280;44185;47.844;8.966;2023-04-27T02:23:56;96194.16;;;6.94;100.00
58385;BME280;44185;47.844;8.966;2023-04-27T02:26:22;96192.09;;;6.86;100.00
58385;BME280;44185;47.844;8.966;2023-04-27T02:28:47;96190.66;;;6.82;100.00
58385;BME280;44185;47.844;8.966;2023-04-27T02:31:14;96197.47;;;6.84;100.00
58385;BME280;44185;47.844;8.966;2023-04-27T02:33:40;96188.41;;;6.88;100.00
58385;BME280;44185;47.844;8.966;2023-04-27T02:36:06;96186.94;;;6.84;100.00
58385;BME280;44185;47.844;8.966;2023-04-27T02:38:32;96189.59;;;6.84;100.00
58385;BME280;44185;47.844;8.966;2023-04-27T02:40:57;96187.16;;;6.81;100.00
58385;BME280;44185;47.844;8.966;2023-04-27T02:43:23;96190.94;;;6.77;100.00
58385;BME280;44185;47.844;8.966;2023-04-27T02:45:48;96193.53;;;6.65;100.00
58385;BME280;44185;47.844;8.966;2023-04-27T02:48:15;96196.50;;;6.61;100.00
58385;BME280;44185;47.844;8.966;2023-04-27T02:50:41;96192.88;;;6.62;100.00
58385;BME280;44185;47.844;8.966;2023-04-27T02:53:06;96186.72;;;6.50;100.00
58385;BME280;44185;47.844;8.966;2023-04-27T02:55:32;96195.53;;;6.62;100.00
58385;BME280;44185;47.844;8.966;2023-04-27T02:57:57;96194.13;;;6.69;100.00
58385;BME280;44185;47.844;8.966;2023-04-27T03:00:23;96197.31;;;6.61;100.00
58385;BME280;44185;47.844;8.966;2023-04-27T03:02:49;96204.47;;;6.59;100.00
58385;BME280;44185;47.844;8.966;2023-04-27T03:05:16;96210.69;;;6.58;100.00
58385;BME280;44185;47.844;8.966;2023-04-27T03:07:41;96210.97;;;6.66;100.00
58385;BME280;44185;47.844;8.966;2023-04-27T03:10:07;96202.03;;;6.69;100.00
58385;BME280;44185;47.844;8.966;2023-04-27T03:12:33;96206.50;;;6.80;100.00
58385;BME280;44185;47.844;8.966;2023-04-27T03:14:58;96203.38;;;6.75;100.00
58385;BME280;44185;47.844;8.966;2023-04-27T03:17:23;96208.13;;;6.70;100.00
58385;BME280;44185;47.844;8.966;2023-04-27T03:19:49;96213.38;;;6.70;100.00
58385;BME280;44185;47.844;8.966;2023-04-27T03:22:16;96213.16;;;6.73;100.00
58385;BME280;44185;47.844;8.966;2023-04-27T03:24:41;96212.44;;;6.71;100.00
58385;BME280;44185;47.844;8.966;2023-04-27T03:27:06;96217.06;;;6.67;100.00
58385;BME280;44185;47.844;8.966;2023-04-27T03:29:32;96212.31;;;6.72;100.00
58385;BME280;44185;47.844;8.966;2023-04-27T03:31:57;96224.63;;;6.72;100.00
58385;BME280;44185;47.844;8.966;2023-04-27T03:34:23;96211.81;;;6.67;100.00
58385;BME280;44185;47.844;8.966;2023-04-27T03:36:48;96216.84;;;6.70;100.00
58385;BME280;44185;47.844;8.966;2023-04-27T03:39:15;96218.63;;;6.70;100.00
58385;BME280;44185;47.844;8.966;2023-04-27T03:41:40;96210.88;;;6.68;100.00
58385;BME280;44185;47.844;8.966;2023-04-27T03:44:06;96214.56;;;6.65;100.00
58385;BME280;44185;47.844;8.966;2023-04-27T03:46:32;96218.84;;;6.66;100.00
58385;BME280;44185;47.844;8.966;2023-04-27T03:48:57;96215.81;;;6.73;100.00
58385;BME280;44185;47.844;8.966;2023-04-27T03:51:23;96218.31;;;6.74;100.00
58385;BME280;44185;47.844;8.966;2023-04-27T03:53:48;96220.34;;;6.71;100.00
58385;BME280;44185;47.844;8.966;2023-04-27T03:56:15;96217.59;;;6.72;100.00
58385;BME280;44185;47.844;8.966;2023-04-27T03:58:41;96215.72;;;6.61;100.00
58385;BME280;44185;47.844;8.966;2023-04-27T04:01:06;96223.19;;;6.67;100.00
58385;BME280;44185;47.844;8.966;2023-04-27T04:03:32;96215.28;;;6.67;100.00
58385;BME280;44185;47.844;8.966;2023-04-27T04:05:57;96217.78;;;6.69;100.00
58385;BME280;44185;47.844;8.966;2023-04-27T04:08:23;96219.81;;;6.65;100.00
58385;BME280;44185;47.844;8.966;2023-04-27T04:10:48;96222.53;;;6.64;100.00
58385;BME280;44185;47.844;8.966;2023-04-27T04:13:15;96217.72;;;6.58;100.00
58385;BME280;44185;47.844;8.966;2023-04-27T04:15:40;96216.38;;;6.52;100.00
58385;BME280;44185;47.844;8.966;2023-04-27T04:18:06;96228.78;;;6.50;100.00
58385;BME280;44185;47.844;8.966;2023-04-27T04:20:33;96224.59;;;6.47;100.00
58385;BME280;44185;47.844;8.966;2023-04-27T04:22:59;96230.97;;;6.43;100.00
58385;BME280;44185;47.844;8.966;2023-04-27T04:25:24;96223.00;;;6.44;100.00
58385;BME280;44185;47.844;8.966;2023-04-27T04:27:50;96229.19;;;6.43;100.00
58385;BME280;44185;47.844;8.966;2023-04-27T04:30:17;96233.28;;;6.48;100.00
58385;BME280;44185;47.844;8.966;2023-04-27T04:32:42;96226.16;;;6.50;100.00
58385;BME280;44185;47.844;8.966;2023-04-27T04:35:07;96231.22;;;6.53;100.00
58385;BME280;44185;47.844;8.966;2023-04-27T04:37:33;96231.22;;;6.53;100.00
58385;BME280;44185;47.844;8.966;2023-04-27T04:39:59;96230.44;;;6.51;100.00
58385;BME280;44185;47.844;8.966;2023-04-27T04:42:24;96233.06;;;6.51;100.00
58385;BME280;44185;47.844;8.966;2023-04-27T04:44:50;96233.19;;;6.49;100.00
58385;BME280;44185;47.844;8.966;2023-04-27T04:47:16;96236.88;;;6.47;100.00
58385;BME280;44185;47.844;8.966;2023-04-27T04:49:42;96233.28;;;6.48;100.00
58385;BME280;44185;47.844;8.966;2023-04-27T04:52:07;96229.50;;;6.52;100.00
58385;BME280;44185;47.844;8.966;2023-04-27T04:54:33;96228.88;;;6.48;100.00
58385;BME280;44185;47.844;8.966;2023-04-27T04:56:58;96229.72;;;6.49;100.00
58385;BME280;44185;47.844;8.966;2023-04-27T04:59:23;96228.47;;;6.41;100.00
58385;BME280;44185;47.844;8.966;2023-04-27T05:01:49;96233.00;;;6.39;100.00
58385;BME280;44185;47.844;8.966;2023-04-27T05:04:16;96236.34;;;6.41;100.00
58385;BME280;44185;47.844;8.966;2023-04-27T05:06:41;96236.88;;;6.47;100.00
58385;BME280;44185;47.844;8.966;2023-04-27T05:09:06;96236.88;;;6.47;100.00
58385;BME280;44185;47.844;8.966;2023-04-27T05:11:32;96235.91;;;6.48;100.00
58385;BME280;44185;47.844;8.966;2023-04-27T05:13:57;96238.03;;;6.42;100.00
58385;BME280;44185;47.844;8.966;2023-04-27T05:16:23;96238.47;;;6.49;100.00
58385;BME280;44185;47.844;8.966;2023-04-27T05:18:48;96234.97;;;6.49;100.00
58385;BME280;44185;47.844;8.966;2023-04-27T05:21:15;96240.88;;;6.52;100.00
58385;BME280;44185;47.844;8.966;2023-04-27T05:23:41;96239.16;;;6.64;100.00
58385;BME280;44185;47.844;8.966;2023-04-27T05:26:10;96244.34;;;6.66;100.00
58385;BME280;44185;47.844;8.966;2023-04-27T05:28:36;96241.16;;;6.74;100.00
58385;BME280;44185;47.844;8.966;2023-04-27T05:31:02;96243.75;;;6.87;100.00
58385;BME280;44185;47.844;8.966;2023-04-27T05:33:27;96237.75;;;6.98;100.00
58385;BME280;44185;47.844;8.966;2023-04-27T05:35:53;96244.84;;;7.09;100.00
58385;BME280;44185;47.844;8.966;2023-04-27T05:38:19;96245.84;;;7.19;100.00
58385;BME280;44185;47.844;8.966;2023-04-27T05:40:45;96250.13;;;7.33;100.00
58385;BME280;44185;47.844;8.966;2023-04-27T05:43:10;96246.59;;;7.46;100.00
58385;BME280;44185;47.844;8.966;2023-04-27T05:45:38;96244.63;;;7.61;100.00
58385;BME280;44185;47.844;8.966;2023-04-27T05:48:03;96245.78;;;7.82;100.00
58385;BME280;44185;47.844;8.966;2023-04-27T05:50:29;96248.81;;;8.00;100.00
58385;BME280;44185;47.844;8.966;2023-04-27T05:52:54;96246.19;;;8.00;100.00
58385;BME280;44185;47.844;8.966;2023-04-27T05:55:21;96254.72;;;8.04;100.00
58385;BME280;44185;47.844;8.966;2023-04-27T05:57:47;96256.59;;;8.01;100.00
58385;BME280;44185;47.844;8.966;2023-04-27T06:00:13;96259.00;;;8.05;100.00
58385;BME280;44185;47.844;8.966;2023-04-27T06:02:39;96261.78;;;8.03;100.00
58385;BME280;44185;47.844;8.966;2023-04-27T06:05:05;96266.81;;;8.18;100.00
58385;BME280;44185;47.844;8.966;2023-04-27T06:07:31;96271.78;;;8.22;100.00
58385;BME280;44185;47.844;8.966;2023-04-27T06:09:56;96271.03;;;8.20;100.00
58385;BME280;44185;47.844;8.966;2023-04-27T06:12:23;96276.34;;;8.32;100.00
58385;BME280;44185;47.844;8.966;2023-04-27T06:14:48;96277.69;;;8.49;100.00
58385;BME280;44185;47.844;8.966;2023-04-27T06:17:14;96270.13;;;8.56;100.00
58385;BME280;44185;47.844;8.966;2023-04-27T06:19:39;96277.31;;;8.54;97.93
58385;BME280;44185;47.844;8.966;2023-04-27T06:22:05;96271.50;;;8.62;97.37
58385;BME280;44185;47.844;8.966;2023-04-27T06:26:12;96276.88;;;8.83;97.52
58385;BME280;44185;47.844;8.966;2023-04-27T06:28:37;96276.03;;;8.83;95.56
58385;BME280;44185;47.844;8.966;2023-04-27T06:31:03;96273.88;;;8.76;95.19
58385;BME280;44185;47.844;8.966;2023-04-27T06:33:29;96280.47;;;8.94;96.25
58385;BME280;44185;47.844;8.966;2023-04-27T06:35:54;96269.56;;;8.98;95.11
58385;BME280;44185;47.844;8.966;2023-04-27T06:38:20;96268.00;;;8.96;91.45
58385;BME280;44185;47.844;8.966;2023-04-27T06:40:49;96276.16;;;9.04;93.21
58385;BME280;44185;47.844;8.966;2023-04-27T06:43:16;96277.66;;;9.18;93.57
58385;BME280;44185;47.844;8.966;2023-04-27T06:45:41;96282.84;;;9.20;92.19
58385;BME280;44185;47.844;8.966;2023-04-27T06:48:07;96281.28;;;9.17;90.41
58385;BME280;44185;47.844;8.966;2023-04-27T06:50:32;96295.69;;;9.13;91.08
58385;BME280;44185;47.844;8.966;2023-04-27T06:52:58;96290.66;;;8.98;90.45
58385;BME280;44185;47.844;8.966;2023-04-27T06:55:23;96287.56;;;8.93;88.02
58385;BME280;44185;47.844;8.966;2023-04-27T06:57:48;96288.03;;;8.98;87.62
58385;BME280;44185;47.844;8.966;2023-04-27T07:00:16;96292.84;;;9.05;89.47
58385;BME280;44185;47.844;8.966;2023-04-27T07:02:41;96293.88;;;9.25;91.27
58385;BME280;44185;47.844;8.966;2023-04-27T07:05:07;96296.25;;;9.40;89.24
58385;BME280;44185;47.844;8.966;2023-04-27T07:07:33;96290.72;;;9.43;87.92
58385;BME280;44185;47.844;8.966;2023-04-27T07:09:58;96293.63;;;9.73;89.01
58385;BME280;44185;47.844;8.966;2023-04-27T07:12:23;96296.97;;;9.86;83.46
58385;BME280;44185;47.844;8.966;2023-04-27T07:14:49;96300.13;;;10.01;85.20
58385;BME280;44185;47.844;8.966;2023-04-27T07:17:16;96302.59;;;10.15;85.47
58385;BME280;44185;47.844;8.966;2023-04-27T07:19:41;96298.59;;;10.20;84.74
58385;BME280;44185;47.844;8.966;2023-04-27T07:22:07;96299.09;;;10.35;85.68
58385;BME280;44185;47.844;8.966;2023-04-27T07:24:32;96299.03;;;10.47;84.21
58385;BME280;44185;47.844;8.966;2023-04-27T07:26:57;96296.66;;;10.65;80.59
58385;BME280;44185;47.844;8.966;2023-04-27T07:29:23;96298.91;;;10.70;81.10
58385;BME280;44185;47.844;8.966;2023-04-27T07:31:48;96287.63;;;10.99;82.06
58385;BME280;44185;47.844;8.966;2023-04-27T07:34:15;96297.25;;;11.00;79.04
58385;BME280;44185;47.844;8.966;2023-04-27T07:36:40;96296.38;;;10.90;75.55
58385;BME280;44185;47.844;8.966;2023-04-27T07:39:06;96295.03;;;11.06;79.66
58385;BME280;44185;47.844;8.966;2023-04-27T07:41:32;96303.06;;;11.36;79.45
58385;BME280;44185;47.844;8.966;2023-04-27T07:43:57;96304.75;;;11.46;80.15
58385;BME280;44185;47.844;8.966;2023-04-27T07:46:23;96299.75;;;11.53;74.94
58385;BME280;44185;47.844;8.966;2023-04-27T07:48:48;96308.06;;;11.39;73.33
58385;BME280;44185;47.844;8.966;2023-04-27T07:51:15;96291.97;;;11.52;74.89
58385;BME280;44185;47.844;8.966;2023-04-27T07:53:40;96293.19;;;11.57;75.58
58385;BME280;44185;47.844;8.966;2023-04-27T07:56:06;96296.25;;;11.33;75.55
58385;BME280;44185;47.844;8.966;2023-04-27T07:58:32;96288.03;;;11.56;76.14
58385;BME280;44185;47.844;8.966;2023-04-27T08:00:57;96292.66;;;11.54;76.42
58385;BME280;44185;47.844;8.966;2023-04-27T08:03:23;96298.97;;;11.11;76.06
58385;BME280;44185;47.844;8.966;2023-04-27T08:05:48;96295.63;;;11.19;78.00
58385;BME280;44185;47.844;8.966;2023-04-27T08:08:15;96309.94;;;11.58;79.11
58385;BME280;44185;47.844;8.966;2023-04-27T08:10:40;96297.53;;;11.59;76.03
58385;BME280;44185;47.844;8.966;2023-04-27T08:13:06;96299.78;;;11.93;76.08
58385;BME280;44185;47.844;8.966;2023-04-27T08:15:31;96296.16;;;11.64;77.06
58385;BME280;44185;47.844;8.966;2023-04-27T08:17:57;96302.88;;;12.38;76.93
58385;BME280;44185;47.844;8.966;2023-04-27T08:20:22;96297.63;;;12.66;73.63
58385;BME280;44185;47.844;8.966;2023-04-27T08:22:49;96297.81;;;12.55;72.51
58385;BME280;44185;47.844;8.966;2023-04-27T08:25:16;96301.31;;;11.96;74.49
58385;BME280;44185;47.844;8.966;2023-04-27T08:27:42;96296.88;;;12.36;76.03
58385;BME280;44185;47.844;8.966;2023-04-27T08:30:08;96297.25;;;12.51;78.45
58385;BME280;44185;47.844;8.966;2023-04-27T08:32:33;96300.72;;;12.62;76.18
58385;BME280;44185;47.844;8.966;2023-04-27T08:34:59;96300.38;;;12.37;73.86
58385;BME280;44185;47.844;8.966;2023-04-27T08:37:24;96290.75;;;12.26;74.81
58385;BME280;44185;47.844;8.966;2023-04-27T08:39:50;96291.63;;;12.64;77.13
58385;BME280;44185;47.844;8.966;2023-04-27T08:42:16;96296.16;;;12.04;78.43
58385;BME280;44185;47.844;8.966;2023-04-27T08:44:43;96290.88;;;12.14;79.18
58385;BME280;44185;47.844;8.966;2023-04-27T08:47:09;96291.28;;;12.39;77.29
58385;BME280;44185;47.844;8.966;2023-04-27T08:49:34;96293.94;;;12.29;79.38
58385;BME280;44185;47.844;8.966;2023-04-27T08:52:00;96289.31;;;12.41;77.56
58385;BME280;44185;47.844;8.966;2023-04-27T08:54:26;96286.34;;;12.54;77.66
58385;BME280;44185;47.844;8.966;2023-04-27T08:56:51;96288.03;;;12.45;76.47
58385;BME280;44185;47.844;8.966;2023-04-27T08:59:18;96289.91;;;12.25;77.40
58385;BME280;44185;47.844;8.966;2023-04-27T09:01:44;96288.16;;;12.54;78.32
58385;BME280;44185;47.844;8.966;2023-04-27T09:04:09;96288.81;;;12.76;77.23
58385;BME280;44185;47.844;8.966;2023-04-27T09:06:35;96287.00;;;12.76;74.93
58385;BME280;44185;47.844;8.966;2023-04-27T09:09:01;96288.09;;;13.12;75.59
58385;BME280;44185;47.844;8.966;2023-04-27T09:11:28;96283.47;;;13.42;72.34
58385;BME280;44185;47.844;8.966;2023-04-27T09:13:54;96278.75;;;13.08;72.29
58385;BME280;44185;47.844;8.966;2023-04-27T09:16:23;96279.00;;;12.86;75.63
58385;BME280;44185;47.844;8.966;2023-04-27T09:18:49;96278.81;;;13.26;71.77
58385;BME280;44185;47.844;8.966;2023-04-27T09:21:21;96274.25;;;13.65;72.16
58385;BME280;44185;47.844;8.966;2023-04-27T09:23:47;96276.56;;;13.50;71.39
58385;BME280;44185;47.844;8.966;2023-04-27T09:26:18;96272.03;;;14.15;70.44
58385;BME280;44185;47.844;8.966;2023-04-27T09:28:47;96269.00;;;13.92;71.91
58385;BME280;44185;47.844;8.966;2023-04-27T09:31:12;96270.06;;;13.81;69.69
58385;BME280;44185;47.844;8.966;2023-04-27T09:33:39;96265.31;;;14.29;72.04
58385;BME280;44185;47.844;8.966;2023-04-27T09:36:05;96269.25;;;14.43;68.53
58385;BME280;44185;47.844;8.966;2023-04-27T09:38:31;96267.63;;;14.51;68.64
58385;BME280;44185;47.844;8.966;2023-04-27T09:40:58;96269.19;;;14.62;65.98
58385;BME280;44185;47.844;8.966;2023-04-27T09:43:24;96266.47;;;14.27;63.55
58385;BME280;44185;47.844;8.966;2023-04-27T09:45:50;96265.88;;;14.41;66.88
58385;BME280;44185;47.844;8.966;2023-04-27T09:48:16;96258.97;;;14.75;69.65
58385;BME280;44185;47.844;8.966;2023-04-27T09:50:44;96266.16;;;14.56;68.74
58385;BME280;44185;47.844;8.966;2023-04-27T09:53:11;96264.50;;;14.10;67.95
58385;BME280;44185;47.844;8.966;2023-04-27T09:55:40;96265.13;;;14.22;67.13
58385;BME280;44185;47.844;8.966;2023-04-27T09:58:28;96269.31;;;13.70;64.89
58385;BME280;44185;47.844;8.966;2023-04-27T10:01:03;96263.59;;;13.65;68.32
58385;BME280;44185;47.844;8.966;2023-04-27T10:03:32;96263.00;;;13.71;70.03
58385;BME280;44185;47.844;8.966;2023-04-27T10:09:08;96251.06;;;13.94;69.19
58385;BME280;44185;47.844;8.966;2023-04-27T10:11:37;96250.91;;;14.14;68.60
58385;BME280;44185;47.844;8.966;2023-04-27T10:14:05;96249.84;;;14.06;67.63
58385;BME280;44185;47.844;8.966;2023-04-27T10:16:42;96249.88;;;13.88;68.94
58385;BME280;44185;47.844;8.966;2023-04-27T10:19:08;96248.19;;;13.87;68.96
58385;BME280;44185;47.844;8.966;2023-04-27T10:21:35;96251.81;;;13.86;70.51
58385;BME280;44185;47.844;8.966;2023-04-27T10:24:06;96251.78;;;13.49;70.05
58385;BME280;44185;47.844;8.966;2023-04-27T10:26:32;96247.59;;;13.93;72.50
58385;BME280;44185;47.844;8.966;2023-04-27T10:29:03;96252.16;;;13.83;69.54
58385;BME280;44185;47.844;8.966;2023-04-27T10:31:29;96253.44;;;13.78;69.94
58385;BME280;44185;47.844;8.966;2023-04-27T10:34:05;96250.84;;;13.87;74.18
58385;BME280;44185;47.844;8.966;2023-04-27T10:36:33;96254.47;;;14.22;67.73
58385;BME280;44185;47.844;8.966;2023-04-27T10:39:00;96240.16;;;14.23;68.19
58385;BME280;44185;47.844;8.966;2023-04-27T10:41:32;96250.31;;;14.28;68.23
58385;BME280;44185;47.844;8.966;2023-04-27T10:44:12;96252.47;;;14.78;69.26
58385;BME280;44185;47.844;8.966;2023-04-27T10:46:48;96249.19;;;14.31;66.70
58385;BME280;44185;47.844;8.966;2023-04-27T10:49:15;96250.13;;;14.48;65.33
58385;BME280;44185;47.844;8.966;2023-04-27T10:51:40;96250.38;;;14.63;67.80
58385;BME280;44185;47.844;8.966;2023-04-27T10:54:07;96250.44;;;14.72;65.05
58385;BME280;44185;47.844;8.966;2023-04-27T10:56:33;96244.69;;;14.31;68.48
58385;BME280;44185;47.844;8.966;2023-04-27T10:59:01;96242.88;;;14.32;65.89
58385;BME280;44185;47.844;8.966;2023-04-27T11:01:26;96240.63;;;14.45;67.41
58385;BME280;44185;47.844;8.966;2023-04-27T11:03:55;96242.28;;;14.73;68.67
58385;BME280;44185;47.844;8.966;2023-04-27T11:06:20;96236.44;;;14.70;63.83
58385;BME280;44185;47.844;8.966;2023-04-27T11:08:46;96231.66;;;14.82;64.09
58385;BME280;44185;47.844;8.966;2023-04-27T11:11:14;96232.47;;;14.74;64.92
58385;BME280;44185;47.844;8.966;2023-04-27T11:13:42;96234.56;;;14.88;64.42
58385;BME280;44185;47.844;8.966;2023-04-27T11:16:07;96239.31;;;15.11;65.97
58385;BME280;44185;47.844;8.966;2023-04-27T11:18:36;96238.47;;;14.76;63.46
58385;BME280;44185;47.844;8.966;2023-04-27T11:21:06;96235.94;;;15.01;62.46
58385;BME280;44185;47.844;8.966;2023-04-27T11:23:32;96239.34;;;15.20;64.87
58385;BME280;44185;47.844;8.966;2023-04-27T11:26:08;96234.69;;;15.22;63.25
58385;BME280;44185;47.844;8.966;2023-04-27T11:28:35;96244.97;;;15.08;64.77
58385;BME280;44185;47.844;8.966;2023-04-27T11:31:02;96236.53;;;14.86;64.79
58385;BME280;44185;47.844;8.966;2023-04-27T11:33:27;96238.19;;;15.22;65.00
58385;BME280;44185;47.844;8.966;2023-04-27T11:35:53;96238.06;;;15.41;64.00
58385;BME280;44185;47.844;8.966;2023-04-27T11:38:19;96230.97;;;15.06;62.74
58385;BME280;44185;47.844;8.966;2023-04-27T11:40:45;96235.25;;;14.90;64.23
58385;BME280;44185;47.844;8.966;2023-04-27T11:43:11;96230.66;;;15.09;62.55
58385;BME280;44185;47.844;8.966;2023-04-27T11:45:40;96238.31;;;15.04;64.14
58385;BME280;44185;47.844;8.966;2023-04-27T11:48:06;96242.16;;;15.18;66.18
58385;BME280;44185;47.844;8.966;2023-04-27T11:50:37;96245.50;;;15.12;64.54
58385;BME280;44185;47.844;8.966;2023-04-27T11:53:02;96237.03;;;15.25;61.06
58385;BME280;44185;47.844;8.966;2023-04-27T11:55:28;96247.41;;;15.37;61.82
58385;BME280;44185;47.844;8.966;2023-04-27T11:57:56;96239.41;;;15.37;60.98
58385;BME280;44185;47.844;8.966;2023-04-27T12:00:21;96240.03;;;15.30;61.94
58385;BME280;44185;47.844;8.966;2023-04-27T12:02:48;96238.59;;;15.53;62.18
58385;BME280;44185;47.844;8.966;2023-04-27T12:05:14;96237.75;;;15.61;61.44
58385;BME280;44185;47.844;8.966;2023-04-27T12:07:39;96236.69;;;15.20;62.96
58385;BME280;44185;47.844;8.966;2023-04-27T12:10:06;96235.88;;;15.28;60.47
58385;BME280;44185;47.844;8.966;2023-04-27T12:12:32;96238.97;;;16.00;61.65
58385;BME280;44185;47.844;8.966;2023-04-27T12:14:57;96232.47;;;15.86;57.25
58385;BME280;44185;47.844;8.966;2023-04-27T12:17:23;96229.00;;;16.10;60.21
58385;BME280;44185;47.844;8.966;2023-04-27T12:19:49;96226.66;;;16.24;58.93
58385;BME280;44185;47.844;8.966;2023-04-27T12:22:15;96221.78;;;16.44;58.67
58385;BME280;44185;47.844;8.966;2023-04-27T12:24:40;96220.78;;;16.94;54.55
58385;BME280;44185;47.844;8.966;2023-04-27T12:27:06;96220.88;;;17.50;54.49
58385;BME280;44185;47.844;8.966;2023-04-27T12:29:32;96217.31;;;17.81;55.75
58385;BME280;44185;47.844;8.966;2023-04-27T12:31:58;96216.88;;;18.16;55.08
58385;BME280;44185;47.844;8.966;2023-04-27T12:34:23;96218.56;;;17.94;50.86
58385;BME280;44185;47.844;8.966;2023-04-27T12:36:50;96222.00;;;17.55;51.37
58385;BME280;44185;47.844;8.966;2023-04-27T12:39:16;96217.06;;;17.44;52.52
58385;BME280;44185;47.844;8.966;2023-04-27T12:41:43;96223.25;;;17.04;53.92
58385;BME280;44185;47.844;8.966;2023-04-27T12:44:08;96214.34;;;17.52;53.09
58385;BME280;44185;47.844;8.966;2023-04-27T12:46:34;96208.72;;;17.39;51.93
58385;BME280;44185;47.844;8.966;2023-04-27T12:48:59;96208.66;;;17.15;55.45
58385;BME280;44185;47.844;8.966;2023-04-27T12:51:26;96209.75;;;17.38;52.57
58385;BME280;44185;47.844;8.966;2023-04-27T12:53:53;96205.53;;;17.11;50.23
58385;BME280;44185;47.844;8.966;2023-04-27T12:56:18;96207.13;;;16.89;52.12
58385;BME280;44185;47.844;8.966;2023-04-27T12:58:44;96200.00;;;16.64;52.10